sensor_id;sensor_type;location;lat;lon;timestamp;pressure;altitude;pressure_sealevel;temperature;humidity
76434;BME280;65265;53.200;6.080;2023-03-07T00:01:33;99562.81;;;3.37;98.40
76434;BME280;65265;53.200;6.080;2023-03-07T00:06:25;99551.88;;;3.36;98.11
76434;BME280;65265;53.200;6.080;2023-03-07T00:11:18;99551.72;;;3.33;97.26
76434;BME280;65265;53.200;6.080;2023-03-07T00:16:14;99550.53;;;3.27;95.89
76434;BME280;65265;53.200;6.080;2023-03-07T00:21:08;99552.44;;;3.31;94.37
76434;BME280;65265;53.200;6.080;2023-03-07T00:26:01;99551.06;;;3.37;93.49
76434;BME280;65265;53.200;6.080;2023-03-07T00:30:54;99548.69;;;3.40;92.77
76434;BME280;65265;53.200;6.080;2023-03-07T00:35:55;99554.88;;;3.47;92.11
76434;BME280;65265;53.200;6.080;2023-03-07T00:40:56;99542.03;;;3.42;90.71
76434;BME280;65265;53.200;6.080;2023-03-07T00:45:48;99527.03;;;3.45;90.45
76434;BME280;65265;53.200;6.080;2023-03-07T00:50:40;99544.19;;;3.52;88.67
76434;BME280;65265;53.200;6.080;2023-03-07T00:55:34;99535.66;;;3.50;88.85
76434;BME280;65265;53.200;6.080;2023-03-07T01:00:26;99528.81;;;3.48;88.24
76434;BME280;65265;53.200;6.080;2023-03-07T01:05:18;99529.75;;;3.50;87.30
76434;BME280;65265;53.200;6.080;2023-03-07T01:10:11;99526.44;;;3.51;85.65
76434;BME280;65265;53.200;6.080;2023-03-07T01:15:07;99528.97;;;3.51;84.95
76434;BME280;65265;53.200;6.080;2023-03-07T01:20:00;99527.81;;;3.62;83.92
76434;BME280;65265;53.200;6.080;2023-03-07T01:24:54;99520.94;;;3.59;83.15
76434;BME280;65265;53.200;6.080;2023-03-07T01:29:46;99520.44;;;3.49;83.45
76434;BME280;65265;53.200;6.080;2023-03-07T01:34:42;99510.44;;;3.33;83.79
76434;BME280;65265;53.200;6.080;2023-03-07T01:39:35;99510.56;;;3.18;84.66
76434;BME280;65265;53.200;6.080;2023-03-07T01:44:28;99501.84;;;3.12;84.61
76434;BME280;65265;53.200;6.080;2023-03-07T01:49:23;99486.91;;;3.16;82.07
76434;BME280;65265;53.200;6.080;2023-03-07T01:54:19;99492.03;;;3.18;81.52
76434;BME280;65265;53.200;6.080;2023-03-07T01:59:14;99475.53;;;3.07;81.85
76434;BME280;65265;53.200;6.080;2023-03-07T02:04:11;99488.28;;;3.10;81.31
76434;BME280;65265;53.200;6.080;2023-03-07T02:09:10;99474.28;;;3.16;81.02
76434;BME280;65265;53.200;6.080;2023-03-07T02:14:08;99481.28;;;3.22;81.43
76434;BME280;65265;53.200;6.080;2023-03-07T02:19:00;99472.69;;;3.18;81.81
76434;BME280;65265;53.200;6.080;2023-03-07T02:23:58;99481.16;;;3.19;81.55
76434;BME280;65265;53.200;6.080;2023-03-07T02:28:54;99470.59;;;3.10;80.76
76434;BME280;65265;53.200;6.080;2023-03-07T02:33:47;99461.34;;;3.10;80.32
76434;BME280;65265;53.200;6.080;2023-03-07T02:38:42;99467.00;;;3.05;80.45
76434;BME280;65265;53.200;6.080;2023-03-07T02:43:35;99424.16;;;2.89;79.51
76434;BME280;65265;53.200;6.080;2023-03-07T02:48:29;99447.94;;;2.94;80.27
76434;BME280;65265;53.200;6.080;2023-03-07T02:53:22;99450.84;;;2.84;80.04
76434;BME280;65265;53.200;6.080;2023-03-07T02:58:14;99445.81;;;2.84;81.01
76434;BME280;65265;53.200;6.080;2023-03-07T03:03:06;99443.69;;;2.75;80.80
76434;BME280;65265;53.200;6.080;2023-03-07T03:07:59;99452.28;;;2.79;80.76
76434;BME280;65265;53.200;6.080;2023-03-07T03:12:52;99459.94;;;2.80;79.00
76434;BME280;65265;53.200;6.080;2023-03-07T03:17:44;99460.97;;;2.84;79.11
76434;BME280;65265;53.200;6.080;2023-03-07T03:22:37;99454.16;;;2.83;78.34
76434;BME280;65265;53.200;6.080;2023-03-07T03:27:33;99454.00;;;2.80;78.95
76434;BME280;65265;53.200;6.080;2023-03-07T03:32:26;99449.91;;;2.82;78.71
76434;BME280;65265;53.200;6.080;2023-03-07T03:37:18;99459.94;;;2.80;77.94
76434;BME280;65265;53.200;6.080;2023-03-07T03:42:11;99442.75;;;2.73;78.23
76434;BME280;65265;53.200;6.080;2023-03-07T03:47:05;99447.09;;;2.76;77.72
76434;BME280;65265;53.200;6.080;2023-03-07T03:51:57;99448.53;;;2.71;78.85
76434;BME280;65265;53.200;6.080;2023-03-07T03:56:49;99449.41;;;2.71;78.84
76434;BME280;65265;53.200;6.080;2023-03-07T04:01:41;99450.41;;;2.75;77.85
76434;BME280;65265;53.200;6.080;2023-03-07T04:06:35;99458.25;;;2.81;77.95
76434;BME280;65265;53.200;6.080;2023-03-07T04:11:27;99451.22;;;2.74;79.18
76434;BME280;65265;53.200;6.080;2023-03-07T04:16:20;99455.47;;;2.75;79.22
76434;BME280;65265;53.200;6.080;2023-03-07T04:21:13;99462.50;;;2.82;79.65
76434;BME280;65265;53.200;6.080;2023-03-07T04:26:08;99453.16;;;2.79;80.68
76434;BME280;65265;53.200;6.080;2023-03-07T04:31:00;99444.22;;;2.86;79.59
76434;BME280;65265;53.200;6.080;2023-03-07T04:35:53;99446.56;;;2.83;80.17
76434;BME280;65265;53.200;6.080;2023-03-07T04:40:45;99446.38;;;2.78;79.19
76434;BME280;65265;53.200;6.080;2023-03-07T04:45:39;99447.38;;;2.82;78.83
76434;BME280;65265;53.200;6.080;2023-03-07T04:50:32;99439.59;;;2.77;80.07
76434;BME280;65265;53.200;6.080;2023-03-07T04:55:25;99444.84;;;2.82;79.81
76434;BME280;65265;53.200;6.080;2023-03-07T05:00:18;99454.22;;;2.84;80.00
76434;BME280;65265;53.200;6.080;2023-03-07T05:05:12;99448.81;;;2.77;80.38
76434;BME280;65265;53.200;6.080;2023-03-07T05:10:05;99450.41;;;2.75;81.04
76434;BME280;65265;53.200;6.080;2023-03-07T05:14:57;99456.47;;;2.78;82.11
76434;BME280;65265;53.200;6.080;2023-03-07T05:19:50;99459.00;;;2.78;84.21
76434;BME280;65265;53.200;6.080;2023-03-07T05:24:44;99462.47;;;2.63;85.49
76434;BME280;65265;53.200;6.080;2023-03-07T05:29:36;99460.34;;;2.54;85.71
76434;BME280;65265;53.200;6.080;2023-03-07T05:34:29;99458.09;;;2.43;86.48
76434;BME280;65265;53.200;6.080;2023-03-07T05:39:21;99458.66;;;2.37;86.90
76434;BME280;65265;53.200;6.080;2023-03-07T05:44:16;99458.44;;;2.33;87.17
76434;BME280;65265;53.200;6.080;2023-03-07T05:49:08;99456.56;;;2.29;86.99
76434;BME280;65265;53.200;6.080;2023-03-07T05:54:01;99460.88;;;2.31;87.31
76434;BME280;65265;53.200;6.080;2023-03-07T05:58:53;99460.88;;;2.31;87.46
76434;BME280;65265;53.200;6.080;2023-03-07T06:03:48;99460.25;;;2.35;88.30
76434;BME280;65265;53.200;6.080;2023-03-07T06:08:41;99468.84;;;2.39;86.55
76434;BME280;65265;53.200;6.080;2023-03-07T06:13:33;99466.44;;;2.42;86.50
76434;BME280;65265;53.200;6.080;2023-03-07T06:18:25;99475.19;;;2.48;87.22
76434;BME280;65265;53.200;6.080;2023-03-07T06:23:19;99483.00;;;2.37;87.50
76434;BME280;65265;53.200;6.080;2023-03-07T06:28:14;99467.53;;;2.14;88.94
76434;BME280;65265;53.200;6.080;2023-03-07T06:33:06;99479.22;;;2.12;89.37
76434;BME280;65265;53.200;6.080;2023-03-07T06:37:58;99470.78;;;1.95;89.76
76434;BME280;65265;53.200;6.080;2023-03-07T06:42:52;99476.59;;;1.94;89.72
76434;BME280;65265;53.200;6.080;2023-03-07T06:47:44;99489.19;;;1.94;90.34
76434;BME280;65265;53.200;6.080;2023-03-07T06:52:36;99489.75;;;1.89;90.32
76434;BME280;65265;53.200;6.080;2023-03-07T06:57:29;99496.75;;;1.94;90.42
76434;BME280;65265;53.200;6.080;2023-03-07T07:02:25;99504.16;;;1.91;90.41
76434;BME280;65265;53.200;6.080;2023-03-07T07:07:17;99505.28;;;1.96;89.83
76434;BME280;65265;53.200;6.080;2023-03-07T07:12:09;99507.31;;;2.03;89.65
76434;BME280;65265;53.200;6.080;2023-03-07T07:17:01;99501.44;;;2.03;90.05
76434;BME280;65265;53.200;6.080;2023-03-07T07:21:56;99506.06;;;2.11;89.04
76434;BME280;65265;53.200;6.080;2023-03-07T07:26:49;99506.22;;;2.14;88.27
76434;BME280;65265;53.200;6.080;2023-03-07T07:31:41;99510.63;;;2.18;87.66
76434;BME280;65265;53.200;6.080;2023-03-07T07:36:33;99502.97;;;2.17;86.94
76434;BME280;65265;53.200;6.080;2023-03-07T07:41:27;99509.09;;;2.22;85.43
76434;BME280;65265;53.200;6.080;2023-03-07T07:46:20;99514.81;;;2.33;84.29
76434;BME280;65265;53.200;6.080;2023-03-07T07:51:12;99519.28;;;2.39;84.27
76434;BME280;65265;53.200;6.080;2023-03-07T07:56:04;99521.16;;;2.43;84.46
76434;BME280;65265;53.200;6.080;2023-03-07T08:00:59;99539.66;;;2.43;84.32
76434;BME280;65265;53.200;6.080;2023-03-07T08:05:53;99546.69;;;2.49;83.81
76434;BME280;65265;53.200;6.080;2023-03-07T08:10:45;99554.25;;;2.49;83.73
76434;BME280;65265;53.200;6.080;2023-03-07T08:15:37;99555.44;;;2.39;84.90
76434;BME280;65265;53.200;6.080;2023-03-07T08:20:31;99557.38;;;2.12;86.91
76434;BME280;65265;53.200;6.080;2023-03-07T08:25:25;99554.28;;;2.01;88.79
76434;BME280;65265;53.200;6.080;2023-03-07T08:30:16;99596.88;;;1.97;90.12
76434;BME280;65265;53.200;6.080;2023-03-07T08:35:10;99591.44;;;1.89;89.87
76434;BME280;65265;53.200;6.080;2023-03-07T08:40:05;99571.84;;;1.53;88.94
76434;BME280;65265;53.200;6.080;2023-03-07T08:44:57;99550.78;;;1.37;90.49
76434;BME280;65265;53.200;6.080;2023-03-07T08:49:49;99559.03;;;1.34;91.24
76434;BME280;65265;53.200;6.080;2023-03-07T08:54:41;99567.63;;;1.38;92.19
76434;BME280;65265;53.200;6.080;2023-03-07T08:59:35;99557.66;;;1.39;92.48
76434;BME280;65265;53.200;6.080;2023-03-07T09:04:28;99559.38;;;1.40;92.75
76434;BME280;65265;53.200;6.080;2023-03-07T09:09:20;99553.97;;;1.49;94.26
76434;BME280;65265;53.200;6.080;2023-03-07T09:14:14;99571.72;;;1.66;94.37
76434;BME280;65265;53.200;6.080;2023-03-07T09:19:10;99576.78;;;1.82;94.16
76434;BME280;65265;53.200;6.080;2023-03-07T09:24:03;99569.56;;;1.88;93.97
76434;BME280;65265;53.200;6.080;2023-03-07T09:28:56;99580.81;;;2.11;93.63
76434;BME280;65265;53.200;6.080;2023-03-07T09:33:48;99576.50;;;2.24;92.06
76434;BME280;65265;53.200;6.080;2023-03-07T09:38:42;99579.66;;;2.36;91.36
76434;BME280;65265;53.200;6.080;2023-03-07T09:43:45;99582.00;;;2.49;90.67
76434;BME280;65265;53.200;6.080;2023-03-07T09:48:48;99573.50;;;2.63;89.68
76434;BME280;65265;53.200;6.080;2023-03-07T09:53:46;99573.44;;;2.79;89.93
76434;BME280;65265;53.200;6.080;2023-03-07T09:58:44;99576.09;;;2.98;89.41
76434;BME280;65265;53.200;6.080;2023-03-07T10:03:44;99579.78;;;3.22;88.31
76434;BME280;65265;53.200;6.080;2023-03-07T10:08:38;99595.84;;;3.40;86.37
76434;BME280;65265;53.200;6.080;2023-03-07T10:13:41;99571.94;;;3.51;86.78
76434;BME280;65265;53.200;6.080;2023-03-07T10:18:46;99578.34;;;3.62;84.76
76434;BME280;65265;53.200;6.080;2023-03-07T10:24:13;99582.88;;;3.51;81.36
76434;BME280;65265;53.200;6.080;2023-03-07T10:29:15;99591.63;;;3.40;80.91
76434;BME280;65265;53.200;6.080;2023-03-07T10:34:15;99592.72;;;3.28;80.84
76434;BME280;65265;53.200;6.080;2023-03-07T10:39:17;99581.25;;;3.17;84.05
76434;BME280;65265;53.200;6.080;2023-03-07T10:44:18;99576.03;;;3.14;84.73
76434;BME280;65265;53.200;6.080;2023-03-07T10:49:15;99573.81;;;3.20;84.51
76434;BME280;65265;53.200;6.080;2023-03-07T10:54:13;99567.28;;;3.25;84.85
76434;BME280;65265;53.200;6.080;2023-03-07T10:59:08;99572.66;;;3.31;83.83
76434;BME280;65265;53.200;6.080;2023-03-07T11:04:05;99574.81;;;3.41;83.45
76434;BME280;65265;53.200;6.080;2023-03-07T11:09:13;99573.50;;;3.49;80.72
76434;BME280;65265;53.200;6.080;2023-03-07T11:14:10;99569.31;;;3.67;80.96
76434;BME280;65265;53.200;6.080;2023-03-07T11:19:25;99575.59;;;4.11;81.37
76434;BME280;65265;53.200;6.080;2023-03-07T11:24:24;99564.97;;;4.57;80.11
76434;BME280;65265;53.200;6.080;2023-03-07T11:29:16;99569.34;;;5.01;76.69
76434;BME280;65265;53.200;6.080;2023-03-07T11:34:23;99577.50;;;5.14;75.96
76434;BME280;65265;53.200;6.080;2023-03-07T11:39:22;99579.84;;;4.89;72.10
76434;BME280;65265;53.200;6.080;2023-03-07T11:44:30;99579.34;;;4.77;70.07
76434;BME280;65265;53.200;6.080;2023-03-07T11:49:37;99577.69;;;4.98;71.11
76434;BME280;65265;53.200;6.080;2023-03-07T11:54:41;99576.66;;;5.14;67.22
76434;BME280;65265;53.200;6.080;2023-03-07T11:59:56;99576.41;;;5.28;69.03
76434;BME280;65265;53.200;6.080;2023-03-07T12:05:13;99576.75;;;5.37;69.21
76434;BME280;65265;53.200;6.080;2023-03-07T12:10:18;99576.84;;;5.18;66.32
76434;BME280;65265;53.200;6.080;2023-03-07T12:15:29;99587.28;;;5.05;64.91
76434;BME280;65265;53.200;6.080;2023-03-07T12:20:36;99579.00;;;4.89;64.97
76434;BME280;65265;53.200;6.080;2023-03-07T12:25:36;99589.56;;;4.99;68.19
76434;BME280;65265;53.200;6.080;2023-03-07T12:30:37;99586.25;;;5.63;72.96
76434;BME280;65265;53.200;6.080;2023-03-07T12:35:42;99589.13;;;5.93;67.11
76434;BME280;65265;53.200;6.080;2023-03-07T12:40:39;99590.72;;;6.36;66.92
76434;BME280;65265;53.200;6.080;2023-03-07T12:45:41;99589.81;;;6.81;65.26
76434;BME280;65265;53.200;6.080;2023-03-07T12:50:51;99600.38;;;7.43;65.83
76434;BME280;65265;53.200;6.080;2023-03-07T12:55:49;99589.91;;;7.60;61.27
76434;BME280;65265;53.200;6.080;2023-03-07T13:00:49;99594.34;;;7.14;62.68
76434;BME280;65265;53.200;6.080;2023-03-07T13:05:47;99587.06;;;6.75;64.05
76434;BME280;65265;53.200;6.080;2023-03-07T13:10:43;99600.63;;;6.29;63.73
76434;BME280;65265;53.200;6.080;2023-03-07T13:16:06;99604.88;;;6.06;64.11
76434;BME280;65265;53.200;6.080;2023-03-07T13:21:12;99598.06;;;6.99;66.60
76434;BME280;65265;53.200;6.080;2023-03-07T13:26:09;99595.38;;;7.46;62.06
76434;BME280;65265;53.200;6.080;2023-03-07T13:31:26;99597.81;;;7.96;61.19
76434;BME280;65265;53.200;6.080;2023-03-07T13:36:34;99608.91;;;8.55;57.92
76434;BME280;65265;53.200;6.080;2023-03-07T13:41:44;99604.19;;;8.67;54.24
76434;BME280;65265;53.200;6.080;2023-03-07T13:46:46;99608.84;;;8.52;53.16
76434;BME280;65265;53.200;6.080;2023-03-07T13:57:37;99605.41;;;8.83;56.16
76434;BME280;65265;53.200;6.080;2023-03-07T14:02:32;99607.19;;;8.84;55.73
76434;BME280;65265;53.200;6.080;2023-03-07T14:07:33;99615.16;;;8.65;54.88
76434;BME280;65265;53.200;6.080;2023-03-07T14:12:35;99621.91;;;8.33;55.87
76434;BME280;65265;53.200;6.080;2023-03-07T14:17:47;99615.56;;;8.21;57.06
76434;BME280;65265;53.200;6.080;2023-03-07T14:22:59;99622.53;;;8.26;58.87
76434;BME280;65265;53.200;6.080;2023-03-07T14:27:57;99640.56;;;8.06;61.01
76434;BME280;65265;53.200;6.080;2023-03-07T14:32:49;99645.00;;;7.86;62.78
76434;BME280;65265;53.200;6.080;2023-03-07T14:37:42;99662.06;;;7.62;64.90
76434;BME280;65265;53.200;6.080;2023-03-07T14:42:42;99678.84;;;7.07;65.99
76434;BME280;65265;53.200;6.080;2023-03-07T14:47:59;99685.78;;;6.21;69.86
76434;BME280;65265;53.200;6.080;2023-03-07T14:52:58;99671.75;;;5.86;70.63
76434;BME280;65265;53.200;6.080;2023-03-07T14:57:55;99682.69;;;5.85;70.90
76434;BME280;65265;53.200;6.080;2023-03-07T15:02:49;99696.53;;;5.93;69.89
76434;BME280;65265;53.200;6.080;2023-03-07T15:07:41;99703.94;;;5.68;70.04
76434;BME280;65265;53.200;6.080;2023-03-07T15:12:34;99705.22;;;5.38;69.48
76434;BME280;65265;53.200;6.080;2023-03-07T15:17:31;99702.53;;;5.54;72.08
76434;BME280;65265;53.200;6.080;2023-03-07T15:22:29;99699.16;;;5.76;70.08
76434;BME280;65265;53.200;6.080;2023-03-07T15:27:29;99700.06;;;5.76;68.30
76434;BME280;65265;53.200;6.080;2023-03-07T15:32:32;99707.56;;;5.94;69.14
76434;BME280;65265;53.200;6.080;2023-03-07T15:37:26;99715.66;;;6.06;68.73
76434;BME280;65265;53.200;6.080;2023-03-07T15:42:19;99712.38;;;6.08;68.00
76434;BME280;65265;53.200;6.080;2023-03-07T15:47:13;99712.31;;;6.07;68.37
76434;BME280;65265;53.200;6.080;2023-03-07T15:52:23;99709.94;;;5.70;66.71
76434;BME280;65265;53.200;6.080;2023-03-07T15:57:20;99714.00;;;5.26;69.04
76434;BME280;65265;53.200;6.080;2023-03-07T16:02:37;99727.28;;;4.82;70.72
76434;BME280;65265;53.200;6.080;2023-03-07T16:07:32;99731.03;;;4.54;72.73
76434;BME280;65265;53.200;6.080;2023-03-07T16:12:24;99727.34;;;4.29;73.79
76434;BME280;65265;53.200;6.080;2023-03-07T16:17:19;99721.06;;;4.03;75.18
76434;BME280;65265;53.200;6.080;2023-03-07T16:22:13;99709.41;;;3.72;75.97
76434;BME280;65265;53.200;6.080;2023-03-07T16:27:11;99724.16;;;3.80;76.19
76434;BME280;65265;53.200;6.080;2023-03-07T16:32:08;99723.97;;;3.60;74.68
76434;BME280;65265;53.200;6.080;2023-03-07T16:37:01;99725.97;;;3.32;77.34
76434;BME280;65265;53.200;6.080;2023-03-07T16:41:53;99731.53;;;3.09;78.58
76434;BME280;65265;53.200;6.080;2023-03-07T16:46:51;99722.53;;;2.98;78.39
76434;BME280;65265;53.200;6.080;2023-03-07T16:51:46;99730.19;;;2.83;78.25
76434;BME280;65265;53.200;6.080;2023-03-07T16:56:40;99743.91;;;2.72;78.40
76434;BME280;65265;53.200;6.080;2023-03-07T17:01:34;99744.75;;;2.57;79.47
76434;BME280;65265;53.200;6.080;2023-03-07T17:06:28;99746.13;;;2.36;80.54
76434;BME280;65265;53.200;6.080;2023-03-07T17:11:21;99749.06;;;2.13;79.95
76434;BME280;65265;53.200;6.080;2023-03-07T17:16:15;99759.09;;;1.97;80.85
76434;BME280;65265;53.200;6.080;2023-03-07T17:21:11;99760.94;;;1.85;82.26
76434;BME280;65265;53.200;6.080;2023-03-07T17:26:06;99764.41;;;1.73;82.37
76434;BME280;65265;53.200;6.080;2023-03-07T17:31:04;99764.59;;;1.61;82.64
76434;BME280;65265;53.200;6.080;2023-03-07T17:35:56;99767.97;;;1.47;82.99
76434;BME280;65265;53.200;6.080;2023-03-07T17:40:53;99786.84;;;1.39;82.63
76434;BME280;65265;53.200;6.080;2023-03-07T17:45:47;99792.28;;;1.32;83.12
76434;BME280;65265;53.200;6.080;2023-03-07T17:50:39;99797.56;;;1.22;83.70
76434;BME280;65265;53.200;6.080;2023-03-07T17:55:31;99801.25;;;1.14;83.78
76434;BME280;65265;53.200;6.080;2023-03-07T18:00:23;99803.03;;;1.02;84.09
76434;BME280;65265;53.200;6.080;2023-03-07T18:05:18;99820.31;;;0.96;83.86
76434;BME280;65265;53.200;6.080;2023-03-07T18:10:11;99811.53;;;0.77;84.32
76434;BME280;65265;53.200;6.080;2023-03-07T18:15:05;99826.59;;;0.62;85.05
76434;BME280;65265;53.200;6.080;2023-03-07T18:19:58;99842.66;;;0.51;85.94
76434;BME280;65265;53.200;6.080;2023-03-07T18:24:52;99842.09;;;0.42;86.67
76434;BME280;65265;53.200;6.080;2023-03-07T18:29:45;99846.41;;;0.32;87.18
76434;BME280;65265;53.200;6.080;2023-03-07T18:34:37;99850.41;;;0.28;88.13
76434;BME280;65265;53.200;6.080;2023-03-07T18:39:29;99841.88;;;0.26;88.58
76434;BME280;65265;53.200;6.080;2023-03-07T18:44:24;99828.53;;;0.14;88.70
76434;BME280;65265;53.200;6.080;2023-03-07T18:49:16;99845.75;;;0.21;89.51
76434;BME280;65265;53.200;6.080;2023-03-07T18:54:08;99849.59;;;0.16;90.24
76434;BME280;65265;53.200;6.080;2023-03-07T18:59:00;99854.84;;;0.19;90.10
76434;BME280;65265;53.200;6.080;2023-03-07T19:03:56;99860.72;;;0.20;90.03
76434;BME280;65265;53.200;6.080;2023-03-07T19:08:49;99855.50;;;0.30;90.70
76434;BME280;65265;53.200;6.080;2023-03-07T19:13:41;99856.22;;;0.40;91.24
76434;BME280;65265;53.200;6.080;2023-03-07T19:18:35;99850.09;;;0.50;90.80
76434;BME280;65265;53.200;6.080;2023-03-07T19:23:30;99844.97;;;0.61;90.69
76434;BME280;65265;53.200;6.080;2023-03-07T19:28:21;99850.00;;;0.61;90.26
76434;BME280;65265;53.200;6.080;2023-03-07T19:33:13;99839.72;;;0.58;89.82
76434;BME280;65265;53.200;6.080;2023-03-07T19:38:06;99847.09;;;0.55;89.62
76434;BME280;65265;53.200;6.080;2023-03-07T19:43:00;99846.69;;;0.49;89.65
76434;BME280;65265;53.200;6.080;2023-03-07T19:47:52;99865.84;;;0.47;89.33
76434;BME280;65265;53.200;6.080;2023-03-07T19:52:44;99869.16;;;0.33;89.21
76434;BME280;65265;53.200;6.080;2023-03-07T19:57:36;99886.16;;;0.24;89.04
76434;BME280;65265;53.200;6.080;2023-03-07T20:02:31;99887.06;;;0.25;89.41
76434;BME280;65265;53.200;6.080;2023-03-07T20:07:23;99883.28;;;0.18;88.75
76434;BME280;65265;53.200;6.080;2023-03-07T20:12:15;99878.22;;;0.05;88.48
76434;BME280;65265;53.200;6.080;2023-03-07T20:17:08;99887.50;;;0.06;88.67
76434;BME280;65265;53.200;6.080;2023-03-07T20:22:03;99886.44;;;0.03;88.49
76434;BME280;65265;53.200;6.080;2023-03-07T20:26:55;99886.91;;;-0.03;88.39
76434;BME280;65265;53.200;6.080;2023-03-07T20:31:47;99876.56;;;-0.07;88.89
76434;BME280;65265;53.200;6.080;2023-03-07T20:36:41;99904.09;;;-0.08;88.84
76434;BME280;65265;53.200;6.080;2023-03-07T20:41:37;99907.00;;;-0.03;89.29
76434;BME280;65265;53.200;6.080;2023-03-07T20:46:30;99899.28;;;-0.05;89.08
76434;BME280;65265;53.200;6.080;2023-03-07T20:51:25;99898.09;;;-0.10;88.70
76434;BME280;65265;53.200;6.080;2023-03-07T20:56:19;99902.03;;;-0.14;88.49
76434;BME280;65265;53.200;6.080;2023-03-07T21:01:16;99893.19;;;-0.09;88.31
76434;BME280;65265;53.200;6.080;2023-03-07T21:06:08;99901.56;;;-0.08;88.50
76434;BME280;65265;53.200;6.080;2023-03-07T21:11:01;99910.53;;;-0.12;88.34
76434;BME280;65265;53.200;6.080;2023-03-07T21:15:57;99911.19;;;-0.27;87.82
76434;BME280;65265;53.200;6.080;2023-03-07T21:20:51;99910.00;;;-0.32;89.75
76434;BME280;65265;53.200;6.080;2023-03-07T21:25:43;99905.00;;;-0.32;90.29
76434;BME280;65265;53.200;6.080;2023-03-07T21:30:36;99917.53;;;-0.32;91.11
76434;BME280;65265;53.200;6.080;2023-03-07T21:35:29;99909.44;;;-0.28;91.21
76434;BME280;65265;53.200;6.080;2023-03-07T21:40:23;99906.38;;;-0.24;91.83
76434;BME280;65265;53.200;6.080;2023-03-07T21:45:17;99903.66;;;-0.27;91.63
76434;BME280;65265;53.200;6.080;2023-03-07T21:50:10;99893.84;;;-0.36;91.81
76434;BME280;65265;53.200;6.080;2023-03-07T21:55:03;99899.56;;;-0.38;92.23
76434;BME280;65265;53.200;6.080;2023-03-07T21:59:57;99903.22;;;-0.46;92.67
76434;BME280;65265;53.200;6.080;2023-03-07T22:04:49;99916.72;;;-0.44;92.81
76434;BME280;65265;53.200;6.080;2023-03-07T22:09:42;99912.94;;;-0.51;92.60
76434;BME280;65265;53.200;6.080;2023-03-07T22:14:34;99920.47;;;-0.51;92.89
76434;BME280;65265;53.200;6.080;2023-03-07T22:19:29;99924.28;;;-0.56;93.05
76434;BME280;65265;53.200;6.080;2023-03-07T22:24:21;99928.78;;;-0.63;92.98
76434;BME280;65265;53.200;6.080;2023-03-07T22:29:13;99925.13;;;-0.68;93.31
76434;BME280;65265;53.200;6.080;2023-03-07T22:34:05;99918.13;;;-0.72;93.44
76434;BME280;65265;53.200;6.080;2023-03-07T22:38:58;99931.25;;;-0.76;93.47
76434;BME280;65265;53.200;6.080;2023-03-07T22:43:50;99926.44;;;-0.73;93.47
76434;BME280;65265;53.200;6.080;2023-03-07T22:48:43;99922.09;;;-0.76;93.70
76434;BME280;65265;53.200;6.080;2023-03-07T22:53:35;99924.69;;;-0.74;93.63
76434;BME280;65265;53.200;6.080;2023-03-07T22:58:31;99923.59;;;-0.78;92.62
76434;BME280;65265;53.200;6.080;2023-03-07T23:03:25;99933.44;;;-0.81;92.33
76434;BME280;65265;53.200;6.080;2023-03-07T23:08:19;99942.09;;;-0.89;92.36
76434;BME280;65265;53.200;6.080;2023-03-07T23:13:12;99930.22;;;-0.91;92.07
76434;BME280;65265;53.200;6.080;2023-03-07T23:18:09;99931.63;;;-0.95;91.95
76434;BME280;65265;53.200;6.080;2023-03-07T23:23:01;99927.38;;;-0.96;91.63
76434;BME280;65265;53.200;6.080;2023-03-07T23:27:54;99946.44;;;-0.86;90.98
76434;BME280;65265;53.200;6.080;2023-03-07T23:32:46;99939.69;;;-0.87;90.13
76434;BME280;65265;53.200;6.080;2023-03-07T23:37:41;99928.66;;;-0.89;90.32
76434;BME280;65265;53.200;6.080;2023-03-07T23:42:33;99936.19;;;-0.89;90.02
76434;BME280;65265;53.200;6.080;2023-03-07T23:47:26;99931.06;;;-0.91;90.21
76434;BME280;65265;53.200;6.080;2023-03-07T23:52:19;99932.41;;;-0.96;89.87
76434;BME280;65265;53.200;6.080;2023-03-07T23:57:13;99933.03;;;-0.98;89.29
